Woodland, Mississippi
Current Conditions -  °F | °C
As of 5:15 PM on Monday 22 Dec 2014 (Local Time) from KSTF Reporting Station
Haze Haze  
Wind Chill: 54°   Ceiling: 100
Heat Index: 54°   Visibility: 0.75mi
Dew Point: 54°   Wind: 6mph
Humidity: 100%   Direction: 160°SSE
Pressure: 29.7"   Gusts: NA
Location:  33.78°N, 89.05°W
Report Text: KSTF 222315Z AUTO 16005KT 3/4SM BR OVC001 12/12 A2970 RMK AO2
Loading
Personal Weather Stations






























Interactive Weather Map New forecast layout! Learn more

10-Day Weather Forecast

Advertisements
Track Severe Weather on mobile